Hovedside
METAR-TAF:

METAR-TAF

Lufthavner :

Valley, Wales

breddegrad: 53-15N, lengdegrad: 004-32W, høyde over havet: 1 m

Gjeldene værobservasjon

Denne rapporten ble laget for 35 minutter siden, klokken 12:50 UTC
Vind 6 kt fra Sør-sørvest
Temperatur 8°C
Luftfuktighet 100%
Trykk 1031 hPa
Sikt: 0250 m
Overskyet i en høyde lavere enn 100 ft
tåke

METAR: EGOV 231250Z 21006KT 0250 FG OVC000 08/08 Q1031 NOSIG RMK RED RED

Tid: 13:25 (13:25 UTC)

Varsel

Denne rapporten ble laget for 2 timer og 19 minutter siden, klokken 11:06 UTC
Varsel gyldig fra 23. klokken 12 UTC til 23. klokken 19 UTC
Vind 5 kt fra Sør
Sikt: 7000 m
Få skyer i en høyde av 300 ft
dis
Midlertidig
fra 23. klokken 12 UTC til 23. klokken 19 UTC
Sikt: 4000 m
Spredte skyer i en høyde av 300 ft
dis
Sannsynlighet 40% :
Midlertidig
fra 23. klokken 12 UTC til 23. klokken 19 UTC
Sikt: 0700 m
Spredte skyer i en høyde av 200 ft
tåke

TAF: EGOV 231106Z 2312/2319 18005KT 7000 BR FEW003 TEMPO 2312/2319 4000 BR SCT003 PROB40 TEMPO 2312/2319 0700 FG SCT002

Værobservasjoner og værvarsel for over 4000 flyplasser (METAR- og TAF-rapporter).

Tilgjengelige stasjoner er representert av de røde og gule prikkene på kartet.

Hold musepekeren over prikken for å se navnet på stasjonen.

Klikk så for å se værobservasjoner og -varsler.

For å forandre kartet kan du klikke på den grønne knappen med svart kryss for å zoome inn, på den grønne knappen med strek for å zoome ut, eller på de grønne pilene for å se tilstøtende kart.


METAR-TAF: